Terminal Aerodrome Forecast
Issued by NWS

Home | Current Version | Previous Version | Graphics & Text | Print | Product List | Glossary On
Versions: 1 2 3 4 5 6 7 8 9 10 11 12 13 14 15 16 17
000
FTUS43 KFGF 182300
TAFBJI
TAF
KBJI 182324Z 1900/1924 19006KT P6SM SKC
     FM190300 27011KT 5SM -SN BR OVC025
     FM191000 29013G20KT P6SM OVC012=

USA.gov is the U.S. government's official web portal to all federal, state and local government web resources and services.